createdAt,value
2017-06-24T00:00:10.239Z,19
2017-06-24T00:01:12.815Z,18.9
2017-06-24T00:02:15.509Z,19.3
2017-06-24T00:03:18.961Z,19.1
2017-06-24T00:04:21.794Z,19.2
2017-06-24T00:05:24.398Z,19.1
2017-06-24T00:06:28.199Z,19.1
2017-06-24T00:07:30.776Z,19
2017-06-24T00:08:33.411Z,19.1
2017-06-24T00:09:36.034Z,19.1
2017-06-24T00:10:38.782Z,19
2017-06-24T00:11:41.474Z,19.1
2017-06-24T00:12:44.064Z,19
2017-06-24T00:13:46.684Z,19
2017-06-24T00:14:49.379Z,19
2017-06-24T00:15:51.989Z,18.9
2017-06-24T00:16:55.217Z,18.4
2017-06-24T00:17:58.653Z,18.8
2017-06-24T00:19:01.471Z,18.8
2017-06-24T00:20:04.124Z,18.7
2017-06-24T00:21:06.749Z,18.8
2017-06-24T00:22:09.508Z,18.8
2017-06-24T00:23:12.151Z,18.8
2017-06-24T00:24:14.752Z,18.8
2017-06-24T00:25:17.497Z,18.7
2017-06-24T00:26:20.175Z,18.7
2017-06-24T00:27:22.772Z,18.7
2017-06-24T00:28:25.375Z,18.3
2017-06-24T00:29:28.494Z,18.7
2017-06-24T00:30:31.079Z,18.7
2017-06-24T00:31:33.710Z,18.7
2017-06-24T00:32:36.458Z,18.5
2017-06-24T00:33:39.713Z,18.4
2017-06-24T00:34:42.602Z,18.3
2017-06-24T00:35:45.296Z,18.3
2017-06-24T00:36:47.887Z,18.2
2017-06-24T00:37:50.456Z,18.2
2017-06-24T00:38:53.112Z,18.4
2017-06-24T00:39:55.674Z,18.5
2017-06-24T00:40:58.303Z,18.5
2017-06-24T00:42:00.832Z,18.5
2017-06-24T00:43:03.403Z,18.5
2017-06-24T00:44:06.047Z,18.2
2017-06-24T00:45:08.769Z,18.3
2017-06-24T00:46:11.440Z,18.3
2017-06-24T00:47:14.060Z,18.4
2017-06-24T00:48:16.622Z,18.4
2017-06-24T00:49:19.355Z,18.4
2017-06-24T00:50:22.044Z,18.3
2017-06-24T00:51:24.634Z,18.3
2017-06-24T00:52:29.228Z,18.2
2017-06-24T00:53:31.912Z,18.2
2017-06-24T00:54:34.944Z,18.2
2017-06-24T00:55:37.667Z,18.3
2017-06-24T00:56:40.323Z,18.3
2017-06-24T00:57:43.041Z,18.3
2017-06-24T00:58:45.615Z,18.3
2017-06-24T00:59:48.404Z,18.2
2017-06-24T01:00:51.014Z,18.2
2017-06-24T01:01:53.585Z,18.2
2017-06-24T01:02:56.133Z,18.2
2017-06-24T01:03:58.794Z,18.1
2017-06-24T01:05:02.381Z,18
2017-06-24T01:06:05.105Z,18.2
2017-06-24T01:07:07.763Z,18.2
2017-06-24T01:08:10.463Z,18.2
2017-06-24T01:09:13.157Z,18.2
2017-06-24T01:10:15.809Z,18.2
2017-06-24T01:11:18.472Z,18.2
2017-06-24T01:12:21.293Z,18.2
2017-06-24T01:13:28.305Z,18.1
2017-06-24T01:14:31.433Z,18.1
2017-06-24T01:15:34.058Z,18.1
2017-06-24T01:16:36.664Z,18.1
2017-06-24T01:17:39.310Z,18.1
2017-06-24T01:18:41.975Z,18.1
2017-06-24T01:19:44.568Z,18.1
2017-06-24T01:20:47.144Z,18
2017-06-24T01:21:49.754Z,18.1
2017-06-24T01:22:52.370Z,18.1
2017-06-24T01:23:54.974Z,18
2017-06-24T01:24:57.710Z,18.1
2017-06-24T01:26:00.390Z,18.1
2017-06-24T01:27:03.017Z,18.1
2017-06-24T01:28:05.650Z,18
2017-06-24T01:29:08.253Z,18.1
2017-06-24T01:30:10.916Z,18.1
2017-06-24T01:31:13.566Z,18.1
2017-06-24T01:32:16.138Z,18
2017-06-24T01:33:18.759Z,18
2017-06-24T01:34:21.394Z,18
2017-06-24T01:35:23.950Z,17.9
2017-06-24T01:36:28.743Z,17.9
2017-06-24T01:37:31.589Z,17.9
2017-06-24T01:38:34.187Z,17.9
2017-06-24T01:39:36.754Z,18
2017-06-24T01:40:39.332Z,17.9
2017-06-24T01:41:41.960Z,17.7
2017-06-24T01:42:44.606Z,17.9
2017-06-24T01:43:47.263Z,17.9
2017-06-24T01:44:49.863Z,17.9
2017-06-24T01:45:52.374Z,17.9
2017-06-24T01:46:54.974Z,17.9
2017-06-24T01:47:57.554Z,18
2017-06-24T01:49:00.077Z,18
2017-06-24T01:50:02.777Z,18
2017-06-24T01:51:05.421Z,18
2017-06-24T01:52:08.038Z,17.9
2017-06-24T01:53:10.993Z,17.9
2017-06-24T01:54:13.676Z,17.9
2017-06-24T01:55:16.332Z,17.6
2017-06-24T01:56:19.011Z,17.9
2017-06-24T01:57:21.918Z,17.9
2017-06-24T01:58:24.461Z,17.8
2017-06-24T01:59:27.730Z,17.9
2017-06-24T02:00:30.675Z,17.9
2017-06-24T02:01:33.596Z,17.9
2017-06-24T02:02:36.132Z,17.9
2017-06-24T02:03:38.797Z,17.9
2017-06-24T02:04:41.530Z,17.8
2017-06-24T02:05:44.277Z,17.7
2017-06-24T02:06:46.843Z,17.7
2017-06-24T02:07:49.499Z,17.7
2017-06-24T02:08:52.038Z,17.7
2017-06-24T02:09:54.672Z,17.7
2017-06-24T02:10:57.283Z,17.7
2017-06-24T02:11:59.859Z,17.7
2017-06-24T02:13:02.469Z,17.7
2017-06-24T02:14:05.062Z,17.7
2017-06-24T02:15:07.772Z,17.6
2017-06-24T02:16:10.450Z,17.6
2017-06-24T02:17:13.081Z,17.4
2017-06-24T02:18:15.687Z,17.7
2017-06-24T02:19:18.303Z,17.7
2017-06-24T02:20:20.953Z,17.7
2017-06-24T02:21:23.476Z,17.7
2017-06-24T02:22:27.401Z,17.8
2017-06-24T02:23:30.048Z,17.8
2017-06-24T02:24:32.615Z,17.6
2017-06-24T02:25:35.213Z,17.6
2017-06-24T02:26:37.987Z,17.6
2017-06-24T02:27:40.553Z,17.6
2017-06-24T02:28:43.124Z,17.6
2017-06-24T02:29:45.730Z,17.7
2017-06-24T02:30:48.407Z,17.6
2017-06-24T02:31:50.939Z,17.7
2017-06-24T02:32:53.485Z,17.6
2017-06-24T02:33:56.069Z,17.6
2017-06-24T02:34:58.684Z,17.6
2017-06-24T02:36:01.360Z,17.6
2017-06-24T02:37:03.938Z,17.5
2017-06-24T02:38:06.500Z,17.6
2017-06-24T02:39:09.186Z,17.5
2017-06-24T02:40:11.751Z,17.4
2017-06-24T02:41:14.464Z,17.4
2017-06-24T02:42:17.097Z,17.5
2017-06-24T02:43:19.730Z,17.5
2017-06-24T02:44:22.304Z,17.5
2017-06-24T02:45:24.945Z,17.5
2017-06-24T02:46:28.805Z,17.6
2017-06-24T02:47:31.424Z,17.6
2017-06-24T02:48:34.007Z,17.6
2017-06-24T02:49:36.706Z,17.7
2017-06-24T02:50:39.342Z,17.6
2017-06-24T02:51:41.935Z,17.6
2017-06-24T02:52:44.515Z,17.6
2017-06-24T02:53:47.158Z,17.7
2017-06-24T02:54:50.494Z,17.7
2017-06-24T02:55:53.154Z,17.7
2017-06-24T02:56:55.694Z,17.7
2017-06-24T02:57:58.345Z,17.7
2017-06-24T02:59:00.953Z,17.8
2017-06-24T03:00:03.524Z,17.7
2017-06-24T03:01:06.183Z,17.6
2017-06-24T03:02:08.771Z,17.5
2017-06-24T03:03:11.382Z,17.6
2017-06-24T03:04:14.020Z,17.5
2017-06-24T03:05:16.560Z,17.4
2017-06-24T03:06:19.204Z,17.5
2017-06-24T03:07:21.850Z,17.5
2017-06-24T03:08:24.470Z,17.4
2017-06-24T03:09:29.162Z,17.2
2017-06-24T03:10:31.799Z,17.5
2017-06-24T03:11:34.423Z,17.4
2017-06-24T03:12:37.011Z,17.4
2017-06-24T03:13:39.630Z,17.4
2017-06-24T03:14:42.168Z,17.4
2017-06-24T03:15:45.711Z,17.2
2017-06-24T03:16:48.420Z,17.2
2017-06-24T03:17:50.976Z,17.2
2017-06-24T03:18:53.565Z,17.2
2017-06-24T03:19:56.259Z,17.2
2017-06-24T03:20:58.866Z,17.2
2017-06-24T03:22:01.457Z,17.2
2017-06-24T03:23:03.959Z,17.2
2017-06-24T03:24:06.655Z,17.2
2017-06-24T03:25:09.273Z,17.1
2017-06-24T03:26:11.843Z,17.1
2017-06-24T03:27:14.473Z,17.2
2017-06-24T03:28:17.140Z,17.1
2017-06-24T03:29:19.789Z,17.1
2017-06-24T03:30:22.390Z,17.2
2017-06-24T03:31:25.799Z,17.2
2017-06-24T03:32:29.940Z,17.2
2017-06-24T03:33:32.525Z,17.2
2017-06-24T03:34:35.098Z,17.2
2017-06-24T03:35:37.694Z,17.3
2017-06-24T03:36:40.277Z,17.2
2017-06-24T03:37:42.919Z,17.3
2017-06-24T03:38:45.526Z,17.2
2017-06-24T03:39:48.153Z,17.2
2017-06-24T03:40:50.764Z,17.2
2017-06-24T03:41:53.341Z,17.2
2017-06-24T03:42:55.949Z,17.1
2017-06-24T03:43:58.557Z,17.2
2017-06-24T03:45:01.167Z,17.1
2017-06-24T03:46:03.774Z,16.9
2017-06-24T03:47:06.433Z,17.2
2017-06-24T03:48:09.268Z,17.2
2017-06-24T03:49:12.116Z,17.1
2017-06-24T03:50:14.803Z,17.1
2017-06-24T03:51:17.431Z,17.2
2017-06-24T03:52:20.082Z,17.2
2017-06-24T03:53:22.683Z,17.2
2017-06-24T03:54:25.259Z,17.3
2017-06-24T03:55:29.258Z,17.2
2017-06-24T03:56:31.793Z,17.2
2017-06-24T03:57:34.388Z,17.2
2017-06-24T03:58:36.946Z,17.2
2017-06-24T03:59:39.514Z,17.2
2017-06-24T04:00:42.028Z,17.2
2017-06-24T04:01:44.629Z,17.1
2017-06-24T04:02:47.473Z,17.3
2017-06-24T04:03:50.225Z,17.2
2017-06-24T04:04:52.901Z,17.1
2017-06-24T04:05:55.464Z,17.2
2017-06-24T04:06:58.053Z,17.2
2017-06-24T04:08:00.649Z,17.1
2017-06-24T04:09:03.316Z,17.4
2017-06-24T04:10:06.018Z,17.3
2017-06-24T04:11:08.681Z,17.2
2017-06-24T04:12:11.253Z,17.3
2017-06-24T04:13:13.913Z,17.3
2017-06-24T04:14:16.493Z,17.2
2017-06-24T04:15:19.829Z,17.2
2017-06-24T04:16:22.488Z,17.2
2017-06-24T04:17:25.099Z,17.2
2017-06-24T04:18:30.353Z,17.3
2017-06-24T04:19:33.010Z,17
2017-06-24T04:20:35.628Z,17.2
2017-06-24T04:21:38.368Z,17.2
2017-06-24T04:22:41.016Z,17.3
2017-06-24T04:23:43.636Z,17.2
2017-06-24T04:24:46.269Z,17.3
2017-06-24T04:25:49.025Z,17.4
2017-06-24T04:26:51.624Z,17.4
2017-06-24T04:27:54.148Z,17.5
2017-06-24T04:28:56.713Z,17.5
2017-06-24T04:29:59.328Z,17.6
2017-06-24T04:31:01.990Z,17.7
2017-06-24T04:32:05.346Z,17.7
2017-06-24T04:33:08.142Z,17.7
2017-06-24T04:34:10.953Z,17.9
2017-06-24T04:35:13.539Z,17.9
2017-06-24T04:36:16.130Z,17.9
2017-06-24T04:37:18.763Z,18
2017-06-24T04:38:21.448Z,17.9
2017-06-24T04:39:24.042Z,17.8
2017-06-24T04:40:28.271Z,18
2017-06-24T04:41:30.893Z,17.9
2017-06-24T04:42:33.484Z,18
2017-06-24T04:43:36.081Z,18.1
2017-06-24T04:44:38.705Z,18
2017-06-24T04:45:41.284Z,18
2017-06-24T04:46:43.871Z,17.7
2017-06-24T04:47:46.466Z,17.9
2017-06-24T04:48:49.073Z,18
2017-06-24T04:49:51.750Z,17.9
2017-06-24T04:50:55.107Z,18.1
2017-06-24T04:51:57.668Z,18.2
2017-06-24T04:53:00.203Z,18.3
2017-06-24T04:54:02.951Z,18.3
2017-06-24T04:55:05.487Z,18.1
2017-06-24T04:56:08.135Z,18.2
2017-06-24T04:57:10.651Z,18.3
2017-06-24T04:58:13.189Z,18.4
2017-06-24T04:59:15.864Z,18.3
2017-06-24T05:00:18.438Z,18.3
2017-06-24T05:01:21.136Z,18.3
2017-06-24T05:02:23.750Z,18.4
2017-06-24T05:03:26.318Z,18.4
2017-06-24T05:04:28.937Z,18.4
2017-06-24T05:05:31.616Z,18.4
2017-06-24T05:06:34.173Z,18.5
2017-06-24T05:07:36.842Z,18.6
2017-06-24T05:08:39.590Z,18.5
2017-06-24T05:09:42.167Z,18.5
2017-06-24T05:10:44.728Z,18.5
2017-06-24T05:11:47.288Z,18.5
2017-06-24T05:12:49.972Z,18.5
2017-06-24T05:13:52.548Z,18.5
2017-06-24T05:14:55.157Z,18.5
2017-06-24T05:15:57.768Z,18.6
2017-06-24T05:17:00.683Z,18.8
2017-06-24T05:18:03.319Z,18.8
2017-06-24T05:19:05.905Z,18.8
2017-06-24T05:20:08.585Z,18.6
2017-06-24T05:21:11.132Z,18.6
2017-06-24T05:22:13.626Z,19
2017-06-24T05:23:16.165Z,18.8
2017-06-24T05:24:18.997Z,19.1
2017-06-24T05:25:21.579Z,19
2017-06-24T05:26:24.156Z,18.8
2017-06-24T05:27:29.090Z,18.8
2017-06-24T05:28:33.027Z,19.1
2017-06-24T05:29:36.509Z,19.5
2017-06-24T05:30:40.705Z,19.4
2017-06-24T05:31:43.297Z,19.5
2017-06-24T05:32:45.858Z,19.5
2017-06-24T05:33:48.985Z,20
2017-06-24T05:34:51.586Z,19.8
2017-06-24T05:35:54.113Z,19.7
2017-06-24T05:36:56.724Z,20.2
2017-06-24T05:37:59.422Z,20.1
2017-06-24T05:39:02.060Z,21.3
2017-06-24T05:40:04.656Z,22.9
2017-06-24T05:41:07.321Z,24.1
2017-06-24T05:42:11.432Z,24.8
2017-06-24T05:43:14.629Z,25.4
2017-06-24T05:44:17.248Z,24.9
2017-06-24T05:45:19.929Z,26.1
2017-06-24T05:46:22.464Z,26.5
2017-06-24T05:47:25.048Z,26.7
2017-06-24T05:48:27.771Z,27.5
2017-06-24T05:49:30.315Z,27
2017-06-24T05:50:32.882Z,26.9
2017-06-24T05:51:35.496Z,26.9
2017-06-24T05:52:38.100Z,27.5
2017-06-24T05:53:40.792Z,27.3
2017-06-24T05:54:43.436Z,27.4
2017-06-24T05:55:46.046Z,28.1
2017-06-24T05:56:48.708Z,27.8
2017-06-24T05:57:51.256Z,27.5
2017-06-24T05:58:53.821Z,27.6
2017-06-24T05:59:56.348Z,28.1
2017-06-24T06:00:59.048Z,28.1
2017-06-24T06:02:01.679Z,27.8
2017-06-24T06:03:04.297Z,27.7
2017-06-24T06:04:06.985Z,28.3
2017-06-24T06:05:10.249Z,29.1
2017-06-24T06:06:12.852Z,28.8
2017-06-24T06:07:15.461Z,28.7
2017-06-24T06:08:18.430Z,28.8
2017-06-24T06:09:21.004Z,27.5
2017-06-24T06:10:23.645Z,28.6
2017-06-24T06:11:26.222Z,27.8
2017-06-24T06:12:28.949Z,28.5
2017-06-24T06:13:31.561Z,27.5
2017-06-24T06:14:34.140Z,27.8
2017-06-24T06:15:36.718Z,28.5
2017-06-24T06:16:39.303Z,28.1
2017-06-24T06:17:41.914Z,28.6
2017-06-24T06:18:44.540Z,28.1
2017-06-24T06:19:47.785Z,28.7
2017-06-24T06:20:51.146Z,26.8
2017-06-24T06:21:53.764Z,26.4
2017-06-24T06:22:56.316Z,27.2
2017-06-24T06:23:58.956Z,25.8
2017-06-24T06:25:01.730Z,24.4
2017-06-24T06:26:04.321Z,27.7
2017-06-24T06:27:06.960Z,28.1
2017-06-24T06:28:09.669Z,27.8
2017-06-24T06:29:12.230Z,29
2017-06-24T06:30:14.818Z,28.7
2017-06-24T06:31:17.634Z,28.9
2017-06-24T06:32:20.263Z,28.2
2017-06-24T06:33:22.788Z,29.5
2017-06-24T06:34:26.152Z,29.2
2017-06-24T06:35:28.929Z,30.1
2017-06-24T06:36:31.730Z,29.9
2017-06-24T06:37:34.293Z,30.6
2017-06-24T06:38:36.910Z,29.9
2017-06-24T06:39:39.595Z,28.8
2017-06-24T06:40:43.057Z,29.7
2017-06-24T06:41:45.706Z,29.6
2017-06-24T06:42:48.284Z,28.5
2017-06-24T06:43:51.043Z,27.9
2017-06-24T06:44:53.595Z,28.2
2017-06-24T06:45:56.193Z,29
2017-06-24T06:46:58.894Z,29.5
2017-06-24T06:48:01.586Z,28.8
2017-06-24T06:49:04.191Z,26.8
2017-06-24T06:50:06.804Z,29
2017-06-24T06:51:09.603Z,28.7
2017-06-24T06:52:12.156Z,28.8
2017-06-24T06:53:14.760Z,29.1
2017-06-24T06:54:17.560Z,29.3
2017-06-24T06:55:20.290Z,29.3
2017-06-24T06:56:22.965Z,29.1
2017-06-24T06:57:25.568Z,29.4
2017-06-24T06:58:28.145Z,29.3
2017-06-24T06:59:30.790Z,31
2017-06-24T07:00:33.432Z,30.7
2017-06-24T07:01:35.959Z,29.3
2017-06-24T07:02:38.588Z,30.5
2017-06-24T07:03:41.230Z,29.8
2017-06-24T07:04:43.941Z,28.3
2017-06-24T07:05:47.412Z,29.1
2017-06-24T07:06:51.933Z,29
2017-06-24T07:07:54.618Z,29.8
2017-06-24T07:08:57.221Z,30.4
2017-06-24T07:09:59.908Z,30.9
2017-06-24T07:11:02.661Z,30.3
2017-06-24T07:12:05.319Z,30.2
2017-06-24T07:13:08.020Z,29.9
2017-06-24T07:14:10.776Z,29.5
2017-06-24T07:15:13.665Z,30.2
2017-06-24T07:16:16.336Z,30.4
2017-06-24T07:17:19.001Z,28.8
2017-06-24T07:18:21.688Z,29.4
2017-06-24T07:19:24.308Z,28.3
2017-06-24T07:20:26.939Z,29.8
2017-06-24T07:21:29.604Z,30.9
2017-06-24T07:22:32.317Z,30.9
2017-06-24T07:23:34.896Z,31.4
2017-06-24T07:24:37.520Z,29.3
2017-06-24T07:25:40.166Z,30.4
2017-06-24T07:26:42.762Z,31.6
2017-06-24T07:27:45.393Z,29.6
2017-06-24T07:28:48.061Z,28.2
2017-06-24T07:29:50.757Z,27.3
2017-06-24T07:30:53.422Z,25.8
2017-06-24T07:31:56.030Z,26.8
2017-06-24T07:32:58.785Z,25.4
2017-06-24T07:34:01.430Z,26.4
2017-06-24T07:35:04.878Z,24.9
2017-06-24T07:36:07.573Z,25.8
2017-06-24T07:37:10.306Z,27.1
2017-06-24T07:38:12.956Z,27.2
2017-06-24T07:39:15.580Z,27.6
2017-06-24T07:40:18.300Z,28.5
2017-06-24T07:41:21.163Z,27.8
2017-06-24T07:42:23.840Z,27.9
2017-06-24T07:43:26.490Z,27.2
2017-06-24T07:44:29.260Z,27.9
2017-06-24T07:45:31.922Z,29.2
2017-06-24T07:46:34.547Z,28.7
2017-06-24T07:47:37.895Z,27.7
2017-06-24T07:48:40.632Z,25.5
2017-06-24T07:49:43.266Z,25.6
2017-06-24T07:50:45.918Z,26.7
2017-06-24T07:51:48.618Z,29
2017-06-24T07:52:51.256Z,24.7
2017-06-24T07:53:53.944Z,24.4
2017-06-24T07:54:56.638Z,25
2017-06-24T07:55:59.485Z,25
2017-06-24T07:57:02.912Z,24.9
2017-06-24T07:58:05.986Z,24.6
2017-06-24T07:59:08.837Z,24.9
2017-06-24T08:00:11.515Z,25.9
2017-06-24T08:01:14.179Z,27.4
2017-06-24T08:02:17.158Z,27.4
2017-06-24T08:03:23.956Z,26.4
2017-06-24T08:04:26.761Z,28
2017-06-24T08:05:29.977Z,27.3
2017-06-24T08:06:32.558Z,26.4
2017-06-24T08:07:35.141Z,26
2017-06-24T08:08:38.392Z,25.8
2017-06-24T08:09:41.154Z,25.4
2017-06-24T08:10:43.801Z,25.5
2017-06-24T08:11:46.451Z,26.3
2017-06-24T08:12:49.187Z,26.9
2017-06-24T08:13:51.978Z,26.2
2017-06-24T08:14:54.628Z,26.2
2017-06-24T08:15:57.329Z,26
2017-06-24T08:17:01.809Z,25.4
2017-06-24T08:18:04.383Z,25.2
2017-06-24T08:19:07.000Z,26
2017-06-24T08:20:09.840Z,24.8
2017-06-24T08:21:12.460Z,24.3
2017-06-24T08:22:15.083Z,25.4
2017-06-24T08:23:17.747Z,27.5
2017-06-24T08:24:20.475Z,26.3
2017-06-24T08:25:23.154Z,25.5
2017-06-24T08:26:25.718Z,25
2017-06-24T08:27:28.968Z,25.5
2017-06-24T08:28:31.657Z,24.8
2017-06-24T08:29:34.375Z,24.4
2017-06-24T08:30:37.074Z,26.7
2017-06-24T08:31:39.751Z,28.7
2017-06-24T08:32:42.447Z,29.8
2017-06-24T08:33:45.569Z,26.5
2017-06-24T08:34:48.126Z,26.4
2017-06-24T08:35:50.874Z,26.3
2017-06-24T08:36:53.434Z,26.5
2017-06-24T08:37:56.077Z,26.2
2017-06-24T08:38:58.672Z,26.4
2017-06-24T08:40:01.492Z,26.1
2017-06-24T08:41:04.442Z,25.7
2017-06-24T08:42:07.159Z,26.7
2017-06-24T08:43:09.917Z,27
2017-06-24T08:44:12.529Z,27
2017-06-24T08:45:15.295Z,27.8
2017-06-24T08:46:18.012Z,27.4
2017-06-24T08:47:20.796Z,27.6
2017-06-24T08:48:23.451Z,27.9
2017-06-24T08:49:26.141Z,27.3
2017-06-24T08:50:29.136Z,27.2
2017-06-24T08:51:31.820Z,28
2017-06-24T08:52:34.463Z,28
2017-06-24T08:53:37.084Z,27.1
2017-06-24T08:54:40.044Z,27
2017-06-24T08:55:42.734Z,26.3
2017-06-24T08:56:45.486Z,26.5
2017-06-24T08:57:48.064Z,26.2
2017-06-24T08:58:50.738Z,25.8
2017-06-24T08:59:53.421Z,25.9
2017-06-24T09:00:56.088Z,26.1
2017-06-24T09:01:58.792Z,26.8
2017-06-24T09:03:01.643Z,26.9
2017-06-24T09:04:04.327Z,27.7
2017-06-24T09:05:07.003Z,27.6
2017-06-24T09:06:09.981Z,26.8
2017-06-24T09:07:12.600Z,26.1
2017-06-24T09:08:15.766Z,25.7
2017-06-24T09:09:27.109Z,24.2
2017-06-24T09:10:30.113Z,24.6
2017-06-24T09:11:33.102Z,25
2017-06-24T09:12:35.935Z,24.7
2017-06-24T09:13:38.694Z,24.6
2017-06-24T09:14:41.368Z,24.6
2017-06-24T09:15:44.038Z,24.8
2017-06-24T09:16:46.672Z,25.8
2017-06-24T09:17:49.632Z,26.2
2017-06-24T09:18:54.043Z,26.7
2017-06-24T09:19:56.821Z,27.3
2017-06-24T09:20:59.672Z,27
2017-06-24T09:22:02.868Z,27.3
2017-06-24T09:23:06.212Z,27.3
2017-06-24T09:24:09.190Z,26.2
2017-06-24T09:25:11.936Z,25.6
2017-06-24T09:26:14.526Z,26
2017-06-24T09:27:17.164Z,28
2017-06-24T09:28:20.076Z,27.8
2017-06-24T09:29:22.743Z,26.8
2017-06-24T09:30:25.394Z,26.7
2017-06-24T09:31:28.044Z,28
2017-06-24T09:32:30.778Z,29.1
2017-06-24T09:33:33.418Z,29.4
2017-06-24T09:34:36.148Z,28.3
2017-06-24T09:35:38.830Z,26.8
2017-06-24T09:36:41.492Z,26.4
2017-06-24T09:37:44.135Z,26
2017-06-24T09:38:46.752Z,26.7
2017-06-24T09:39:49.523Z,27.4
2017-06-24T09:40:52.140Z,26.4
2017-06-24T09:41:54.870Z,25.6
2017-06-24T09:42:57.562Z,25.8
2017-06-24T09:44:00.262Z,25.3
2017-06-24T09:45:03.065Z,24.7
2017-06-24T09:46:05.902Z,25.1
2017-06-24T09:47:08.615Z,25.8
2017-06-24T09:48:11.425Z,26
2017-06-24T09:49:14.077Z,26.2
2017-06-24T09:50:16.737Z,25.8
2017-06-24T09:51:19.487Z,25.7
2017-06-24T09:52:22.130Z,25.4
2017-06-24T09:53:24.709Z,25.1
2017-06-24T09:54:27.492Z,24.7
2017-06-24T09:55:30.175Z,24.7
2017-06-24T09:56:32.828Z,24.9
2017-06-24T09:57:35.469Z,24.7
2017-06-24T09:58:38.207Z,24.3
2017-06-24T09:59:41.219Z,24.3
2017-06-24T10:00:43.890Z,24.5
2017-06-24T10:01:46.596Z,25.4
2017-06-24T10:02:49.221Z,25.7
2017-06-24T10:03:51.911Z,26.3
2017-06-24T10:04:54.605Z,26.7
2017-06-24T10:05:57.302Z,26.7
2017-06-24T10:07:00.110Z,26
2017-06-24T10:08:02.932Z,26.2
2017-06-24T10:09:05.694Z,26.8
2017-06-24T10:10:08.435Z,26.9
2017-06-24T10:11:11.223Z,27.2
2017-06-24T10:12:13.913Z,26.1
2017-06-24T10:13:17.503Z,25.8
2017-06-24T10:14:21.006Z,25.4
2017-06-24T10:15:23.709Z,25.8
2017-06-24T10:16:26.403Z,25.4
2017-06-24T10:17:29.156Z,25.9
2017-06-24T10:18:31.877Z,26.5
2017-06-24T10:19:34.536Z,26.7
2017-06-24T10:20:37.246Z,27
2017-06-24T10:21:40.104Z,26.7
2017-06-24T10:22:42.940Z,26
2017-06-24T10:23:45.695Z,26.2
2017-06-24T10:24:48.461Z,26.6
2017-06-24T10:25:51.604Z,26.2
2017-06-24T10:26:54.442Z,27.2
2017-06-24T10:27:57.195Z,27
2017-06-24T10:29:00.114Z,26.4
2017-06-24T10:30:03.053Z,27
2017-06-24T10:31:06.054Z,27
2017-06-24T10:32:08.944Z,26.6
2017-06-24T10:33:12.041Z,26.6
2017-06-24T10:34:14.944Z,26.6
2017-06-24T10:35:17.842Z,26.3
2017-06-24T10:36:20.709Z,26.2
2017-06-24T10:37:23.610Z,26.2
2017-06-24T10:38:26.640Z,26.8
2017-06-24T10:39:29.512Z,27.5
2017-06-24T10:40:32.333Z,26.3
2017-06-24T10:41:35.195Z,26
2017-06-24T10:42:38.016Z,26.7
2017-06-24T10:43:41.522Z,26.5
2017-06-24T10:44:44.240Z,26.8
2017-06-24T10:45:46.945Z,27.3
2017-06-24T10:46:51.542Z,27.2
2017-06-24T10:47:55.021Z,27.8
2017-06-24T10:48:57.876Z,26.3
2017-06-24T10:50:00.689Z,26
2017-06-24T10:51:03.678Z,26
2017-06-24T10:52:06.516Z,26.6
2017-06-24T10:53:10.674Z,27.5
2017-06-24T10:54:14.052Z,27.1
2017-06-24T10:55:17.632Z,26.6
2017-06-24T10:56:20.559Z,27.2
2017-06-24T10:57:23.603Z,27.4
2017-06-24T10:58:26.506Z,26.3
2017-06-24T10:59:30.575Z,26.5
2017-06-24T11:00:33.211Z,26.4
2017-06-24T11:01:36.081Z,26.8
2017-06-24T11:02:39.039Z,25.7
2017-06-24T11:03:42.140Z,26
2017-06-24T11:04:44.777Z,25.7
2017-06-24T11:05:47.519Z,26
2017-06-24T11:06:50.425Z,25.6
2017-06-24T11:07:53.124Z,25.6
2017-06-24T11:08:55.801Z,25.3
2017-06-24T11:09:58.529Z,25.2
2017-06-24T11:11:01.343Z,26.2
2017-06-24T11:12:04.126Z,26
2017-06-24T11:13:07.183Z,25.2
2017-06-24T11:14:10.198Z,26.1
2017-06-24T11:15:13.005Z,27.1
2017-06-24T11:16:15.764Z,27.4
2017-06-24T11:17:18.544Z,27.4
2017-06-24T11:18:21.346Z,26.7
2017-06-24T11:19:24.051Z,26.9
2017-06-24T11:20:26.759Z,26.2
2017-06-24T11:21:29.450Z,25.8
2017-06-24T11:22:32.473Z,25.8
2017-06-24T11:23:35.950Z,25.5
2017-06-24T11:24:38.746Z,25.9
2017-06-24T11:25:41.741Z,26.1
2017-06-24T11:26:44.566Z,25.7
2017-06-24T11:27:48.524Z,25.7
2017-06-24T11:28:51.414Z,25.9
2017-06-24T11:29:54.151Z,26.4
2017-06-24T11:30:57.493Z,26.9
2017-06-24T11:32:00.483Z,27.4
2017-06-24T11:33:03.160Z,26.8
2017-06-24T11:34:05.867Z,26.8
2017-06-24T11:35:08.761Z,27.5
2017-06-24T11:36:11.498Z,27.1
2017-06-24T11:37:14.282Z,26.6
2017-06-24T11:38:16.974Z,26.6
2017-06-24T11:39:19.682Z,26
2017-06-24T11:40:22.596Z,26.6
2017-06-24T11:41:25.296Z,27.4
2017-06-24T11:42:28.587Z,27
2017-06-24T11:43:31.514Z,25.9
2017-06-24T11:44:34.496Z,26.4
2017-06-24T11:45:38.326Z,26.9
2017-06-24T11:46:41.145Z,27
2017-06-24T11:47:43.863Z,27.3
2017-06-24T11:48:46.507Z,27.2
2017-06-24T11:49:49.170Z,26.9
2017-06-24T11:50:51.888Z,26.4
2017-06-24T11:51:55.367Z,25.9
2017-06-24T11:52:58.212Z,26.2
2017-06-24T11:54:01.075Z,25.9
2017-06-24T11:55:03.782Z,26
2017-06-24T11:56:06.749Z,26.5
2017-06-24T11:57:09.497Z,26.5
2017-06-24T11:58:12.244Z,26.5
2017-06-24T11:59:14.956Z,26.4
2017-06-24T12:00:17.635Z,26.3
2017-06-24T12:01:20.678Z,26.1
2017-06-24T12:02:23.580Z,25.8
2017-06-24T12:03:26.424Z,25.5
2017-06-24T12:04:29.126Z,25.8
2017-06-24T12:05:31.973Z,26
2017-06-24T12:06:34.698Z,26.2
2017-06-24T12:07:37.427Z,26
2017-06-24T12:08:40.239Z,25.6
2017-06-24T12:09:43.077Z,25.2
2017-06-24T12:10:46.491Z,25.8
2017-06-24T12:11:49.138Z,25.7
2017-06-24T12:12:52.040Z,25.3
2017-06-24T12:13:54.741Z,25.2
2017-06-24T12:14:57.839Z,25.4
2017-06-24T12:16:00.741Z,25.2
2017-06-24T12:17:03.752Z,25.1
2017-06-24T12:18:06.557Z,24.8
2017-06-24T12:19:10.330Z,24.1
2017-06-24T12:20:13.152Z,24.1
2017-06-24T12:21:15.955Z,24.6
2017-06-24T12:22:18.952Z,24.9
2017-06-24T12:23:22.167Z,25
2017-06-24T12:24:25.120Z,24.7
2017-06-24T12:25:28.016Z,24.6
2017-06-24T12:26:30.878Z,24.9
2017-06-24T12:27:33.690Z,24.7
2017-06-24T12:28:38.610Z,24.7
2017-06-24T12:29:41.820Z,24.6
2017-06-24T12:30:44.739Z,24.5
2017-06-24T12:31:48.699Z,24.6
2017-06-24T12:32:51.661Z,24.4
2017-06-24T12:33:54.501Z,24.7
2017-06-24T12:34:57.319Z,24.5
2017-06-24T12:36:00.244Z,24.6
2017-06-24T12:37:03.043Z,24.7
2017-06-24T12:38:06.482Z,24.3
2017-06-24T12:39:09.282Z,24.6
2017-06-24T12:40:12.355Z,24.5
2017-06-24T12:41:15.289Z,24.6
2017-06-24T12:42:18.895Z,24.5
2017-06-24T12:43:21.837Z,24.7
2017-06-24T12:44:25.588Z,23.3
2017-06-24T12:45:28.726Z,23.3
2017-06-24T12:46:31.676Z,23
2017-06-24T12:47:34.510Z,23.8
2017-06-24T12:48:37.517Z,24.1
2017-06-24T12:49:40.508Z,24.4
2017-06-24T12:50:43.339Z,24.7
2017-06-24T12:51:47.256Z,24.5
2017-06-24T12:52:50.289Z,24.6
2017-06-24T12:53:53.085Z,24.7
2017-06-24T12:54:56.419Z,24.8
2017-06-24T12:55:59.838Z,24.5
2017-06-24T12:57:04.191Z,24.4
2017-06-24T12:58:07.333Z,24.6
2017-06-24T12:59:10.168Z,24.8
2017-06-24T13:00:13.240Z,24.6
2017-06-24T13:01:16.268Z,24.7
2017-06-24T13:02:19.633Z,25
2017-06-24T13:03:22.437Z,25.1
2017-06-24T13:04:25.193Z,25.1
2017-06-24T13:05:27.877Z,24.9
2017-06-24T13:06:32.146Z,24.7
2017-06-24T13:07:35.008Z,24.5
2017-06-24T13:08:37.834Z,24.9
2017-06-24T13:09:40.706Z,25.1
2017-06-24T13:10:43.506Z,25.1
2017-06-24T13:11:46.524Z,24.9
2017-06-24T13:12:49.260Z,24.7
2017-06-24T13:13:52.200Z,24.4
2017-06-24T13:14:54.892Z,24.9
2017-06-24T13:15:57.682Z,25.1
2017-06-24T13:17:00.638Z,24.8
2017-06-24T13:18:03.377Z,24.9
2017-06-24T13:19:06.174Z,24.3
2017-06-24T13:20:09.055Z,24.7
2017-06-24T13:21:11.900Z,24.9
2017-06-24T13:22:14.717Z,24.1
2017-06-24T13:23:17.559Z,24.3
2017-06-24T13:24:20.385Z,24.7
2017-06-24T13:25:23.245Z,25.1
2017-06-24T13:26:26.062Z,25
2017-06-24T13:27:30.339Z,24.3
2017-06-24T13:28:33.790Z,24.2
2017-06-24T13:29:36.478Z,24.2
2017-06-24T13:30:40.212Z,24.5
2017-06-24T13:31:43.118Z,24.5
2017-06-24T13:32:46.794Z,24.7
2017-06-24T13:33:49.585Z,25.2
2017-06-24T13:34:52.961Z,25.4
2017-06-24T13:35:55.707Z,25.2
2017-06-24T13:36:59.163Z,25.1
2017-06-24T13:38:02.277Z,25
2017-06-24T13:39:05.079Z,24.8
2017-06-24T13:40:08.210Z,24.3
2017-06-24T13:41:11.197Z,24.3
2017-06-24T13:42:14.759Z,24.5
2017-06-24T13:43:18.124Z,24.6
2017-06-24T13:44:20.968Z,24.1
2017-06-24T13:45:23.756Z,24.1
2017-06-24T13:46:27.440Z,24.7
2017-06-24T13:47:34.705Z,24.8
2017-06-24T13:48:37.685Z,24.6
2017-06-24T13:49:40.696Z,25.1
2017-06-24T13:50:43.666Z,25.2
2017-06-24T13:51:46.544Z,25.5
2017-06-24T13:52:50.630Z,25.3
2017-06-24T13:53:57.691Z,25.4
2017-06-24T13:55:00.674Z,25
2017-06-24T13:56:03.598Z,24.5
2017-06-24T13:57:06.355Z,25.2
2017-06-24T13:58:09.214Z,25.2
2017-06-24T13:59:11.987Z,25.3
2017-06-24T14:00:14.830Z,25.3
2017-06-24T14:01:17.659Z,25.3